sensor_id;sensor_type;location;lat;lon;timestamp;P1;durP1;ratioP1;P2;durP2;ratioP2
51810;SDS011;52468;40.116;18.296;2023-05-07T00:02:23;8.87;;;6.57;;
51810;SDS011;52468;40.116;18.296;2023-05-07T00:04:51;11.47;;;7.33;;
51810;SDS011;52468;40.116;18.296;2023-05-07T00:07:19;11.93;;;7.13;;
51810;SDS011;52468;40.116;18.296;2023-05-07T00:09:47;12.20;;;8.30;;
51810;SDS011;52468;40.116;18.296;2023-05-07T00:12:14;15.20;;;8.63;;
51810;SDS011;52468;40.116;18.296;2023-05-07T00:14:42;12.03;;;7.63;;
51810;SDS011;52468;40.116;18.296;2023-05-07T00:17:10;8.47;;;6.30;;
51810;SDS011;52468;40.116;18.296;2023-05-07T00:19:38;12.70;;;7.43;;
51810;SDS011;52468;40.116;18.296;2023-05-07T00:22:07;13.77;;;7.60;;
51810;SDS011;52468;40.116;18.296;2023-05-07T00:24:35;14.70;;;8.20;;
51810;SDS011;52468;40.116;18.296;2023-05-07T00:27:03;11.07;;;7.37;;
51810;SDS011;52468;40.116;18.296;2023-05-07T00:29:30;13.73;;;8.10;;
51810;SDS011;52468;40.116;18.296;2023-05-07T00:31:58;10.30;;;7.13;;
51810;SDS011;52468;40.116;18.296;2023-05-07T00:34:26;10.40;;;7.73;;
51810;SDS011;52468;40.116;18.296;2023-05-07T00:36:54;12.93;;;7.37;;
51810;SDS011;52468;40.116;18.296;2023-05-07T00:39:22;13.53;;;7.93;;
51810;SDS011;52468;40.116;18.296;2023-05-07T00:41:49;10.10;;;6.97;;
51810;SDS011;52468;40.116;18.296;2023-05-07T00:44:18;10.07;;;7.50;;
51810;SDS011;52468;40.116;18.296;2023-05-07T00:46:46;9.83;;;7.23;;
51810;SDS011;52468;40.116;18.296;2023-05-07T00:49:17;11.20;;;8.10;;
51810;SDS011;52468;40.116;18.296;2023-05-07T00:51:45;12.30;;;8.03;;
51810;SDS011;52468;40.116;18.296;2023-05-07T00:54:14;13.17;;;8.20;;
51810;SDS011;52468;40.116;18.296;2023-05-07T00:56:42;10.70;;;8.27;;
51810;SDS011;52468;40.116;18.296;2023-05-07T00:59:10;10.23;;;7.60;;
51810;SDS011;52468;40.116;18.296;2023-05-07T01:01:38;11.80;;;7.80;;
51810;SDS011;52468;40.116;18.296;2023-05-07T01:04:06;14.70;;;7.17;;
51810;SDS011;52468;40.116;18.296;2023-05-07T01:06:33;13.33;;;6.87;;
51810;SDS011;52468;40.116;18.296;2023-05-07T01:09:01;11.70;;;7.43;;
51810;SDS011;52468;40.116;18.296;2023-05-07T01:11:31;10.23;;;6.70;;
51810;SDS011;52468;40.116;18.296;2023-05-07T01:13:59;9.60;;;6.37;;
51810;SDS011;52468;40.116;18.296;2023-05-07T01:16:27;10.30;;;7.57;;
51810;SDS011;52468;40.116;18.296;2023-05-07T01:18:55;10.57;;;6.83;;
51810;SDS011;52468;40.116;18.296;2023-05-07T01:21:25;10.77;;;7.53;;
51810;SDS011;52468;40.116;18.296;2023-05-07T01:23:57;10.03;;;7.07;;
51810;SDS011;52468;40.116;18.296;2023-05-07T01:26:25;11.37;;;7.40;;
51810;SDS011;52468;40.116;18.296;2023-05-07T01:28:53;13.10;;;7.47;;
51810;SDS011;52468;40.116;18.296;2023-05-07T01:31:21;9.20;;;6.73;;
51810;SDS011;52468;40.116;18.296;2023-05-07T01:33:51;10.57;;;7.67;;
51810;SDS011;52468;40.116;18.296;2023-05-07T01:36:19;10.63;;;6.60;;
51810;SDS011;52468;40.116;18.296;2023-05-07T01:38:50;11.03;;;8.10;;
51810;SDS011;52468;40.116;18.296;2023-05-07T01:41:19;10.90;;;6.80;;
51810;SDS011;52468;40.116;18.296;2023-05-07T01:43:48;10.37;;;7.83;;
51810;SDS011;52468;40.116;18.296;2023-05-07T01:46:17;11.80;;;7.13;;
51810;SDS011;52468;40.116;18.296;2023-05-07T01:48:45;9.07;;;7.37;;
51810;SDS011;52468;40.116;18.296;2023-05-07T01:51:13;10.27;;;7.33;;
51810;SDS011;52468;40.116;18.296;2023-05-07T01:53:41;11.90;;;8.03;;
51810;SDS011;52468;40.116;18.296;2023-05-07T01:56:10;14.07;;;8.73;;
51810;SDS011;52468;40.116;18.296;2023-05-07T01:58:40;11.83;;;7.70;;
51810;SDS011;52468;40.116;18.296;2023-05-07T02:01:08;15.00;;;9.13;;
51810;SDS011;52468;40.116;18.296;2023-05-07T02:03:36;16.77;;;9.07;;
51810;SDS011;52468;40.116;18.296;2023-05-07T02:06:11;14.20;;;8.33;;
51810;SDS011;52468;40.116;18.296;2023-05-07T02:08:39;12.87;;;8.63;;
51810;SDS011;52468;40.116;18.296;2023-05-07T02:11:08;12.93;;;8.67;;
51810;SDS011;52468;40.116;18.296;2023-05-07T02:13:36;16.13;;;8.57;;
51810;SDS011;52468;40.116;18.296;2023-05-07T02:16:04;11.37;;;8.27;;
51810;SDS011;52468;40.116;18.296;2023-05-07T02:18:33;10.53;;;6.90;;
51810;SDS011;52468;40.116;18.296;2023-05-07T02:21:00;10.13;;;8.10;;
51810;SDS011;52468;40.116;18.296;2023-05-07T02:23:28;15.70;;;8.73;;
51810;SDS011;52468;40.116;18.296;2023-05-07T02:25:56;11.40;;;8.53;;
51810;SDS011;52468;40.116;18.296;2023-05-07T02:28:24;13.80;;;8.43;;
51810;SDS011;52468;40.116;18.296;2023-05-07T02:31:03;13.77;;;8.53;;
51810;SDS011;52468;40.116;18.296;2023-05-07T02:33:32;11.83;;;9.30;;
51810;SDS011;52468;40.116;18.296;2023-05-07T02:36:07;15.00;;;8.73;;
51810;SDS011;52468;40.116;18.296;2023-05-07T02:39:06;12.77;;;9.40;;
51810;SDS011;52468;40.116;18.296;2023-05-07T02:41:33;12.30;;;9.00;;
51810;SDS011;52468;40.116;18.296;2023-05-07T02:44:01;13.73;;;8.33;;
51810;SDS011;52468;40.116;18.296;2023-05-07T02:46:30;11.17;;;8.03;;
51810;SDS011;52468;40.116;18.296;2023-05-07T02:49:06;11.80;;;8.43;;
51810;SDS011;52468;40.116;18.296;2023-05-07T02:51:34;12.67;;;9.17;;
51810;SDS011;52468;40.116;18.296;2023-05-07T02:54:06;16.13;;;8.60;;
51810;SDS011;52468;40.116;18.296;2023-05-07T02:56:34;13.80;;;9.43;;
51810;SDS011;52468;40.116;18.296;2023-05-07T02:59:02;16.97;;;10.43;;
51810;SDS011;52468;40.116;18.296;2023-05-07T03:01:35;12.47;;;8.77;;
51810;SDS011;52468;40.116;18.296;2023-05-07T03:04:08;13.73;;;9.47;;
51810;SDS011;52468;40.116;18.296;2023-05-07T03:06:36;13.90;;;9.10;;
51810;SDS011;52468;40.116;18.296;2023-05-07T03:09:04;14.07;;;8.67;;
51810;SDS011;52468;40.116;18.296;2023-05-07T03:11:32;13.10;;;9.30;;
51810;SDS011;52468;40.116;18.296;2023-05-07T03:13:59;12.73;;;7.67;;
51810;SDS011;52468;40.116;18.296;2023-05-07T03:16:27;10.57;;;7.97;;
51810;SDS011;52468;40.116;18.296;2023-05-07T03:18:55;13.13;;;8.93;;
51810;SDS011;52468;40.116;18.296;2023-05-07T03:21:23;11.60;;;7.83;;
51810;SDS011;52468;40.116;18.296;2023-05-07T03:23:51;11.20;;;7.33;;
51810;SDS011;52468;40.116;18.296;2023-05-07T03:26:19;10.80;;;7.40;;
51810;SDS011;52468;40.116;18.296;2023-05-07T03:28:48;10.93;;;7.37;;
51810;SDS011;52468;40.116;18.296;2023-05-07T03:31:17;10.83;;;8.00;;
51810;SDS011;52468;40.116;18.296;2023-05-07T03:33:52;11.27;;;7.77;;
51810;SDS011;52468;40.116;18.296;2023-05-07T03:36:25;13.03;;;8.10;;
51810;SDS011;52468;40.116;18.296;2023-05-07T03:38:56;11.23;;;9.07;;
51810;SDS011;52468;40.116;18.296;2023-05-07T03:41:33;11.37;;;7.83;;
51810;SDS011;52468;40.116;18.296;2023-05-07T03:44:01;14.93;;;10.10;;
51810;SDS011;52468;40.116;18.296;2023-05-07T03:46:29;12.20;;;8.43;;
51810;SDS011;52468;40.116;18.296;2023-05-07T03:48:57;12.70;;;9.07;;
51810;SDS011;52468;40.116;18.296;2023-05-07T03:51:25;11.03;;;7.73;;
51810;SDS011;52468;40.116;18.296;2023-05-07T03:53:53;13.27;;;9.17;;
51810;SDS011;52468;40.116;18.296;2023-05-07T03:56:25;12.23;;;8.03;;
51810;SDS011;52468;40.116;18.296;2023-05-07T03:58:57;9.80;;;7.87;;
51810;SDS011;52468;40.116;18.296;2023-05-07T04:01:26;9.97;;;7.33;;
51810;SDS011;52468;40.116;18.296;2023-05-07T04:03:55;8.17;;;6.70;;
51810;SDS011;52468;40.116;18.296;2023-05-07T04:06:24;9.90;;;6.10;;
51810;SDS011;52468;40.116;18.296;2023-05-07T04:08:52;8.33;;;5.93;;
51810;SDS011;52468;40.116;18.296;2023-05-07T04:11:20;7.60;;;6.13;;
51810;SDS011;52468;40.116;18.296;2023-05-07T04:13:48;7.23;;;5.30;;
51810;SDS011;52468;40.116;18.296;2023-05-07T04:16:20;9.10;;;5.50;;
51810;SDS011;52468;40.116;18.296;2023-05-07T04:18:48;7.97;;;5.73;;
51810;SDS011;52468;40.116;18.296;2023-05-07T04:21:17;9.07;;;5.90;;
51810;SDS011;52468;40.116;18.296;2023-05-07T04:23:47;6.33;;;5.00;;
51810;SDS011;52468;40.116;18.296;2023-05-07T04:26:16;7.17;;;5.33;;
51810;SDS011;52468;40.116;18.296;2023-05-07T04:28:45;8.70;;;5.07;;
51810;SDS011;52468;40.116;18.296;2023-05-07T04:31:14;9.13;;;4.93;;
51810;SDS011;52468;40.116;18.296;2023-05-07T04:33:44;11.03;;;6.53;;
51810;SDS011;52468;40.116;18.296;2023-05-07T04:36:13;7.23;;;4.87;;
51810;SDS011;52468;40.116;18.296;2023-05-07T04:41:25;6.33;;;4.43;;
51810;SDS011;52468;40.116;18.296;2023-05-07T04:43:53;10.63;;;6.63;;
51810;SDS011;52468;40.116;18.296;2023-05-07T04:46:23;7.53;;;5.30;;
51810;SDS011;52468;40.116;18.296;2023-05-07T04:48:56;8.50;;;4.82;;
51810;SDS011;52468;40.116;18.296;2023-05-07T04:51:24;5.80;;;4.67;;
51810;SDS011;52468;40.116;18.296;2023-05-07T04:53:53;8.53;;;4.33;;
51810;SDS011;52468;40.116;18.296;2023-05-07T04:56:20;6.63;;;4.73;;
51810;SDS011;52468;40.116;18.296;2023-05-07T04:58:48;5.53;;;4.70;;
51810;SDS011;52468;40.116;18.296;2023-05-07T05:01:20;6.93;;;5.73;;
51810;SDS011;52468;40.116;18.296;2023-05-07T05:03:48;8.43;;;5.30;;
51810;SDS011;52468;40.116;18.296;2023-05-07T05:06:18;9.17;;;6.90;;
51810;SDS011;52468;40.116;18.296;2023-05-07T05:08:46;57.67;;;33.73;;
51810;SDS011;52468;40.116;18.296;2023-05-07T05:11:14;166.10;;;96.00;;
51810;SDS011;52468;40.116;18.296;2023-05-07T05:13:42;191.90;;;106.00;;
51810;SDS011;52468;40.116;18.296;2023-05-07T05:16:15;159.23;;;87.03;;
51810;SDS011;52468;40.116;18.296;2023-05-07T05:18:44;98.43;;;58.03;;
51810;SDS011;52468;40.116;18.296;2023-05-07T05:21:14;77.83;;;42.57;;
51810;SDS011;52468;40.116;18.296;2023-05-07T05:23:44;41.40;;;22.33;;
51810;SDS011;52468;40.116;18.296;2023-05-07T05:26:14;27.33;;;14.03;;
51810;SDS011;52468;40.116;18.296;2023-05-07T05:28:42;16.37;;;9.80;;
51810;SDS011;52468;40.116;18.296;2023-05-07T05:31:11;9.97;;;7.13;;
51810;SDS011;52468;40.116;18.296;2023-05-07T05:33:39;7.17;;;5.90;;
51810;SDS011;52468;40.116;18.296;2023-05-07T05:36:10;9.03;;;6.50;;
51810;SDS011;52468;40.116;18.296;2023-05-07T05:38:41;10.43;;;6.57;;
51810;SDS011;52468;40.116;18.296;2023-05-07T05:41:10;9.70;;;6.00;;
51810;SDS011;52468;40.116;18.296;2023-05-07T05:43:38;10.20;;;5.40;;
51810;SDS011;52468;40.116;18.296;2023-05-07T05:46:06;5.37;;;4.43;;
51810;SDS011;52468;40.116;18.296;2023-05-07T05:48:36;6.57;;;5.27;;
51810;SDS011;52468;40.116;18.296;2023-05-07T05:51:04;7.97;;;5.30;;
51810;SDS011;52468;40.116;18.296;2023-05-07T05:53:33;6.87;;;4.13;;
51810;SDS011;52468;40.116;18.296;2023-05-07T05:56:01;5.30;;;4.43;;
51810;SDS011;52468;40.116;18.296;2023-05-07T05:58:31;6.50;;;5.20;;
51810;SDS011;52468;40.116;18.296;2023-05-07T06:01:02;6.33;;;5.17;;
51810;SDS011;52468;40.116;18.296;2023-05-07T06:03:30;5.97;;;5.03;;
51810;SDS011;52468;40.116;18.296;2023-05-07T06:06:03;8.15;;;4.40;;
51810;SDS011;52468;40.116;18.296;2023-05-07T06:08:31;6.00;;;4.43;;
51810;SDS011;52468;40.116;18.296;2023-05-07T06:11:01;6.33;;;4.60;;
51810;SDS011;52468;40.116;18.296;2023-05-07T06:13:32;4.83;;;3.93;;
51810;SDS011;52468;40.116;18.296;2023-05-07T06:16:00;4.60;;;4.10;;
51810;SDS011;52468;40.116;18.296;2023-05-07T06:18:29;4.97;;;3.60;;
51810;SDS011;52468;40.116;18.296;2023-05-07T06:20:57;4.87;;;3.63;;
51810;SDS011;52468;40.116;18.296;2023-05-07T06:23:28;4.30;;;3.43;;
51810;SDS011;52468;40.116;18.296;2023-05-07T06:25:56;6.70;;;3.77;;
51810;SDS011;52468;40.116;18.296;2023-05-07T06:28:29;4.82;;;3.58;;
51810;SDS011;52468;40.116;18.296;2023-05-07T06:31:15;6.07;;;4.23;;
51810;SDS011;52468;40.116;18.296;2023-05-07T06:33:50;6.20;;;3.43;;
51810;SDS011;52468;40.116;18.296;2023-05-07T06:36:19;4.63;;;3.53;;
51810;SDS011;52468;40.116;18.296;2023-05-07T06:38:46;8.30;;;5.07;;
51810;SDS011;52468;40.116;18.296;2023-05-07T06:41:15;5.33;;;3.80;;
51810;SDS011;52468;40.116;18.296;2023-05-07T06:43:43;4.70;;;3.53;;
51810;SDS011;52468;40.116;18.296;2023-05-07T06:46:30;5.00;;;3.60;;
51810;SDS011;52468;40.116;18.296;2023-05-07T06:48:57;5.33;;;3.47;;
51810;SDS011;52468;40.116;18.296;2023-05-07T06:51:27;4.17;;;3.30;;
51810;SDS011;52468;40.116;18.296;2023-05-07T06:53:56;5.73;;;3.83;;
51810;SDS011;52468;40.116;18.296;2023-05-07T06:56:24;4.87;;;3.30;;
51810;SDS011;52468;40.116;18.296;2023-05-07T06:58:52;3.87;;;2.63;;
51810;SDS011;52468;40.116;18.296;2023-05-07T07:01:21;4.23;;;2.23;;
51810;SDS011;52468;40.116;18.296;2023-05-07T07:03:49;2.50;;;2.17;;
51810;SDS011;52468;40.116;18.296;2023-05-07T07:06:19;2.67;;;1.87;;
51810;SDS011;52468;40.116;18.296;2023-05-07T07:08:47;2.17;;;1.97;;
51810;SDS011;52468;40.116;18.296;2023-05-07T07:11:17;3.20;;;2.10;;
51810;SDS011;52468;40.116;18.296;2023-05-07T07:13:45;3.37;;;1.80;;
51810;SDS011;52468;40.116;18.296;2023-05-07T07:16:12;3.07;;;2.00;;
51810;SDS011;52468;40.116;18.296;2023-05-07T07:18:40;1.73;;;1.53;;
51810;SDS011;52468;40.116;18.296;2023-05-07T07:21:08;2.00;;;1.80;;
51810;SDS011;52468;40.116;18.296;2023-05-07T07:23:36;3.80;;;2.23;;
51810;SDS011;52468;40.116;18.296;2023-05-07T07:26:04;2.47;;;2.27;;
51810;SDS011;52468;40.116;18.296;2023-05-07T07:28:34;2.57;;;2.07;;
51810;SDS011;52468;40.116;18.296;2023-05-07T07:31:01;1.73;;;1.60;;
51810;SDS011;52468;40.116;18.296;2023-05-07T07:33:30;3.00;;;2.03;;
51810;SDS011;52468;40.116;18.296;2023-05-07T07:35:58;4.33;;;2.47;;
51810;SDS011;52468;40.116;18.296;2023-05-07T07:38:26;3.03;;;1.80;;
51810;SDS011;52468;40.116;18.296;2023-05-07T07:40:55;3.60;;;2.30;;
51810;SDS011;52468;40.116;18.296;2023-05-07T07:43:24;6.03;;;2.63;;
51810;SDS011;52468;40.116;18.296;2023-05-07T07:45:52;1.97;;;1.80;;
51810;SDS011;52468;40.116;18.296;2023-05-07T07:48:20;2.67;;;2.47;;
51810;SDS011;52468;40.116;18.296;2023-05-07T07:50:49;2.50;;;1.97;;
51810;SDS011;52468;40.116;18.296;2023-05-07T07:53:18;3.30;;;2.50;;
51810;SDS011;52468;40.116;18.296;2023-05-07T07:55:47;5.43;;;3.67;;
51810;SDS011;52468;40.116;18.296;2023-05-07T07:58:18;3.07;;;2.47;;
51810;SDS011;52468;40.116;18.296;2023-05-07T08:00:46;3.73;;;2.20;;
51810;SDS011;52468;40.116;18.296;2023-05-07T08:03:15;2.43;;;2.23;;
51810;SDS011;52468;40.116;18.296;2023-05-07T08:05:47;3.05;;;2.05;;
51810;SDS011;52468;40.116;18.296;2023-05-07T08:08:18;2.53;;;1.80;;
51810;SDS011;52468;40.116;18.296;2023-05-07T08:10:46;4.93;;;2.50;;
51810;SDS011;52468;40.116;18.296;2023-05-07T08:13:24;3.30;;;2.30;;
51810;SDS011;52468;40.116;18.296;2023-05-07T08:15:52;2.97;;;2.47;;
51810;SDS011;52468;40.116;18.296;2023-05-07T08:18:20;3.13;;;2.40;;
51810;SDS011;52468;40.116;18.296;2023-05-07T08:20:48;3.43;;;2.43;;
51810;SDS011;52468;40.116;18.296;2023-05-07T08:23:20;3.80;;;2.75;;
51810;SDS011;52468;40.116;18.296;2023-05-07T08:25:49;4.57;;;3.03;;
51810;SDS011;52468;40.116;18.296;2023-05-07T08:28:19;3.10;;;2.47;;
51810;SDS011;52468;40.116;18.296;2023-05-07T08:30:48;3.53;;;3.00;;
51810;SDS011;52468;40.116;18.296;2023-05-07T08:33:17;4.03;;;2.83;;
51810;SDS011;52468;40.116;18.296;2023-05-07T08:35:44;3.37;;;3.03;;
51810;SDS011;52468;40.116;18.296;2023-05-07T08:38:13;5.90;;;2.90;;
51810;SDS011;52468;40.116;18.296;2023-05-07T08:40:42;3.07;;;2.40;;
51810;SDS011;52468;40.116;18.296;2023-05-07T08:43:15;4.17;;;2.70;;
51810;SDS011;52468;40.116;18.296;2023-05-07T08:45:45;3.23;;;2.70;;
51810;SDS011;52468;40.116;18.296;2023-05-07T08:48:18;4.72;;;2.95;;
51810;SDS011;52468;40.116;18.296;2023-05-07T08:50:55;3.90;;;2.53;;
51810;SDS011;52468;40.116;18.296;2023-05-07T09:11:59;5.30;;;3.00;;
51810;SDS011;52468;40.116;18.296;2023-05-07T09:14:29;4.93;;;2.97;;
51810;SDS011;52468;40.116;18.296;2023-05-07T09:16:58;3.10;;;2.87;;
51810;SDS011;52468;40.116;18.296;2023-05-07T09:19:27;3.30;;;3.00;;
51810;SDS011;52468;40.116;18.296;2023-05-07T09:22:01;3.07;;;2.73;;
51810;SDS011;52468;40.116;18.296;2023-05-07T09:24:39;8.20;;;3.17;;
51810;SDS011;52468;40.116;18.296;2023-05-07T09:27:10;3.10;;;2.80;;
51810;SDS011;52468;40.116;18.296;2023-05-07T09:29:42;3.05;;;2.75;;
51810;SDS011;52468;40.116;18.296;2023-05-07T09:32:12;3.77;;;3.23;;
51810;SDS011;52468;40.116;18.296;2023-05-07T09:34:43;3.90;;;3.50;;
51810;SDS011;52468;40.116;18.296;2023-05-07T09:37:12;3.53;;;3.20;;
51810;SDS011;52468;40.116;18.296;2023-05-07T09:39:44;3.40;;;3.10;;
51810;SDS011;52468;40.116;18.296;2023-05-07T09:42:16;3.20;;;2.75;;
51810;SDS011;52468;40.116;18.296;2023-05-07T09:44:59;3.00;;;2.80;;
51810;SDS011;52468;40.116;18.296;2023-05-07T09:47:34;2.73;;;2.43;;
51810;SDS011;52468;40.116;18.296;2023-05-07T09:50:06;3.10;;;2.80;;
51810;SDS011;52468;40.116;18.296;2023-05-07T09:52:39;6.88;;;3.97;;
51810;SDS011;52468;40.116;18.296;2023-05-07T09:55:10;5.17;;;4.00;;
51810;SDS011;52468;40.116;18.296;2023-05-07T09:57:40;4.50;;;3.90;;
51810;SDS011;52468;40.116;18.296;2023-05-07T10:00:10;4.97;;;3.37;;
51810;SDS011;52468;40.116;18.296;2023-05-07T10:02:48;3.60;;;2.90;;
51810;SDS011;52468;40.116;18.296;2023-05-07T10:05:25;3.40;;;2.77;;
51810;SDS011;52468;40.116;18.296;2023-05-07T10:07:57;3.70;;;2.65;;
51810;SDS011;52468;40.116;18.296;2023-05-07T10:10:27;5.23;;;3.27;;
51810;SDS011;52468;40.116;18.296;2023-05-07T10:12:56;3.70;;;3.30;;
51810;SDS011;52468;40.116;18.296;2023-05-07T10:15:31;8.57;;;5.20;;
51810;SDS011;52468;40.116;18.296;2023-05-07T10:18:01;5.90;;;3.87;;
51810;SDS011;52468;40.116;18.296;2023-05-07T10:20:32;2.60;;;2.40;;
51810;SDS011;52468;40.116;18.296;2023-05-07T10:23:05;4.63;;;2.73;;
51810;SDS011;52468;40.116;18.296;2023-05-07T10:25:40;3.53;;;3.23;;
51810;SDS011;52468;40.116;18.296;2023-05-07T10:28:18;2.80;;;2.50;;
51810;SDS011;52468;40.116;18.296;2023-05-07T10:33:24;4.03;;;3.50;;
51810;SDS011;52468;40.116;18.296;2023-05-07T10:35:55;3.42;;;3.13;;
51810;SDS011;52468;40.116;18.296;2023-05-07T10:38:27;4.65;;;3.40;;
51810;SDS011;52468;40.116;18.296;2023-05-07T10:40:56;3.77;;;2.97;;
51810;SDS011;52468;40.116;18.296;2023-05-07T10:43:24;3.63;;;2.90;;
51810;SDS011;52468;40.116;18.296;2023-05-07T10:46:10;5.10;;;4.13;;
51810;SDS011;52468;40.116;18.296;2023-05-07T10:51:38;3.87;;;3.03;;
51810;SDS011;52468;40.116;18.296;2023-05-07T10:54:18;4.20;;;3.67;;
51810;SDS011;52468;40.116;18.296;2023-05-07T11:03:06;4.53;;;3.40;;
51810;SDS011;52468;40.116;18.296;2023-05-07T11:06:11;4.90;;;3.60;;
51810;SDS011;52468;40.116;18.296;2023-05-07T11:17:12;3.30;;;2.83;;
51810;SDS011;52468;40.116;18.296;2023-05-07T11:19:55;4.25;;;3.03;;
51810;SDS011;52468;40.116;18.296;2023-05-07T11:25:21;3.15;;;2.83;;
51810;SDS011;52468;40.116;18.296;2023-05-07T11:28:03;3.30;;;2.80;;
51810;SDS011;52468;40.116;18.296;2023-05-07T11:30:42;6.55;;;2.97;;
51810;SDS011;52468;40.116;18.296;2023-05-07T11:33:16;4.03;;;2.97;;
51810;SDS011;52468;40.116;18.296;2023-05-07T11:38:19;3.67;;;3.33;;
51810;SDS011;52468;40.116;18.296;2023-05-07T11:40:57;3.55;;;2.83;;
51810;SDS011;52468;40.116;18.296;2023-05-07T11:43:29;3.85;;;2.70;;
51810;SDS011;52468;40.116;18.296;2023-05-07T11:46:18;3.05;;;2.75;;
51810;SDS011;52468;40.116;18.296;2023-05-07T11:48:46;3.92;;;2.75;;
51810;SDS011;52468;40.116;18.296;2023-05-07T11:51:14;3.55;;;3.10;;
51810;SDS011;52468;40.116;18.296;2023-05-07T11:53:47;2.50;;;2.25;;
51810;SDS011;52468;40.116;18.296;2023-05-07T11:56:16;6.18;;;2.40;;
51810;SDS011;52468;40.116;18.296;2023-05-07T11:58:45;2.75;;;2.45;;
51810;SDS011;52468;40.116;18.296;2023-05-07T12:01:14;6.32;;;3.20;;
51810;SDS011;52468;40.116;18.296;2023-05-07T12:03:44;3.67;;;3.38;;
51810;SDS011;52468;40.116;18.296;2023-05-07T12:06:14;2.42;;;2.28;;
51810;SDS011;52468;40.116;18.296;2023-05-07T12:08:43;3.53;;;3.22;;
51810;SDS011;52468;40.116;18.296;2023-05-07T12:11:15;3.17;;;2.63;;
51810;SDS011;52468;40.116;18.296;2023-05-07T12:13:53;2.75;;;2.25;;
51810;SDS011;52468;40.116;18.296;2023-05-07T12:16:24;3.22;;;2.85;;
51810;SDS011;52468;40.116;18.296;2023-05-07T12:18:53;2.63;;;1.95;;
51810;SDS011;52468;40.116;18.296;2023-05-07T12:21:22;3.28;;;2.97;;
51810;SDS011;52468;40.116;18.296;2023-05-07T12:23:51;4.32;;;2.70;;
51810;SDS011;52468;40.116;18.296;2023-05-07T12:26:19;3.85;;;2.90;;
51810;SDS011;52468;40.116;18.296;2023-05-07T12:28:50;8.05;;;2.72;;
51810;SDS011;52468;40.116;18.296;2023-05-07T12:31:18;2.58;;;2.38;;
51810;SDS011;52468;40.116;18.296;2023-05-07T12:33:46;2.58;;;1.85;;
51810;SDS011;52468;40.116;18.296;2023-05-07T12:36:14;3.72;;;2.50;;
51810;SDS011;52468;40.116;18.296;2023-05-07T12:38:42;3.78;;;2.30;;
51810;SDS011;52468;40.116;18.296;2023-05-07T12:41:10;2.45;;;2.25;;
51810;SDS011;52468;40.116;18.296;2023-05-07T12:43:39;3.05;;;2.38;;
51810;SDS011;52468;40.116;18.296;2023-05-07T12:46:11;3.28;;;2.70;;
51810;SDS011;52468;40.116;18.296;2023-05-07T12:48:44;2.58;;;2.38;;
51810;SDS011;52468;40.116;18.296;2023-05-07T12:51:13;5.05;;;2.83;;
51810;SDS011;52468;40.116;18.296;2023-05-07T12:53:42;4.07;;;2.85;;
51810;SDS011;52468;40.116;18.296;2023-05-07T12:56:10;3.75;;;2.97;;
51810;SDS011;52468;40.116;18.296;2023-05-07T12:58:38;4.25;;;3.35;;
51810;SDS011;52468;40.116;18.296;2023-05-07T13:01:07;3.50;;;3.20;;
51810;SDS011;52468;40.116;18.296;2023-05-07T13:03:37;3.33;;;2.65;;
51810;SDS011;52468;40.116;18.296;2023-05-07T13:06:06;2.78;;;2.53;;
51810;SDS011;52468;40.116;18.296;2023-05-07T13:08:37;5.25;;;2.60;;
51810;SDS011;52468;40.116;18.296;2023-05-07T13:11:07;3.90;;;2.55;;
51810;SDS011;52468;40.116;18.296;2023-05-07T13:13:36;3.38;;;2.92;;
51810;SDS011;52468;40.116;18.296;2023-05-07T13:16:06;4.10;;;3.70;;
51810;SDS011;52468;40.116;18.296;2023-05-07T13:18:38;5.75;;;2.78;;
51810;SDS011;52468;40.116;18.296;2023-05-07T13:21:07;5.85;;;3.05;;
51810;SDS011;52468;40.116;18.296;2023-05-07T13:23:35;3.42;;;3.13;;
51810;SDS011;52468;40.116;18.296;2023-05-07T13:26:05;3.50;;;2.90;;
51810;SDS011;52468;40.116;18.296;2023-05-07T13:28:41;2.90;;;2.60;;
51810;SDS011;52468;40.116;18.296;2023-05-07T13:31:09;4.47;;;2.55;;
51810;SDS011;52468;40.116;18.296;2023-05-07T13:33:37;3.13;;;2.65;;
51810;SDS011;52468;40.116;18.296;2023-05-07T13:36:05;4.13;;;2.60;;
51810;SDS011;52468;40.116;18.296;2023-05-07T13:38:33;6.35;;;3.08;;
51810;SDS011;52468;40.116;18.296;2023-05-07T13:41:01;3.58;;;2.50;;
51810;SDS011;52468;40.116;18.296;2023-05-07T13:43:29;3.95;;;3.55;;
51810;SDS011;52468;40.116;18.296;2023-05-07T13:45:56;3.35;;;2.78;;
51810;SDS011;52468;40.116;18.296;2023-05-07T13:48:24;3.17;;;2.70;;
51810;SDS011;52468;40.116;18.296;2023-05-07T13:50:52;2.92;;;2.67;;
51810;SDS011;52468;40.116;18.296;2023-05-07T13:53:20;3.08;;;2.88;;
51810;SDS011;52468;40.116;18.296;2023-05-07T13:55:47;4.55;;;3.10;;
51810;SDS011;52468;40.116;18.296;2023-05-07T13:58:15;3.95;;;2.75;;
51810;SDS011;52468;40.116;18.296;2023-05-07T14:00:43;2.97;;;2.70;;
51810;SDS011;52468;40.116;18.296;2023-05-07T14:03:11;4.07;;;3.00;;
51810;SDS011;52468;40.116;18.296;2023-05-07T14:05:39;2.28;;;2.08;;
51810;SDS011;52468;40.116;18.296;2023-05-07T14:08:07;3.97;;;3.58;;
51810;SDS011;52468;40.116;18.296;2023-05-07T14:10:35;3.53;;;3.17;;
51810;SDS011;52468;40.116;18.296;2023-05-07T14:13:03;3.33;;;3.00;;
51810;SDS011;52468;40.116;18.296;2023-05-07T14:15:31;3.30;;;3.00;;
51810;SDS011;52468;40.116;18.296;2023-05-07T14:18:00;2.83;;;2.63;;
51810;SDS011;52468;40.116;18.296;2023-05-07T14:20:28;3.25;;;2.95;;
51810;SDS011;52468;40.116;18.296;2023-05-07T14:22:58;3.25;;;2.95;;
51810;SDS011;52468;40.116;18.296;2023-05-07T14:25:26;3.78;;;3.47;;
51810;SDS011;52468;40.116;18.296;2023-05-07T14:27:53;3.85;;;3.42;;
51810;SDS011;52468;40.116;18.296;2023-05-07T14:30:21;2.95;;;2.60;;
51810;SDS011;52468;40.116;18.296;2023-05-07T14:32:51;3.60;;;3.30;;
51810;SDS011;52468;40.116;18.296;2023-05-07T14:35:19;3.47;;;3.17;;
51810;SDS011;52468;40.116;18.296;2023-05-07T14:37:47;3.97;;;3.55;;
51810;SDS011;52468;40.116;18.296;2023-05-07T14:40:15;4.55;;;3.90;;
51810;SDS011;52468;40.116;18.296;2023-05-07T14:42:43;3.67;;;2.78;;
51810;SDS011;52468;40.116;18.296;2023-05-07T14:45:10;3.03;;;2.70;;
51810;SDS011;52468;40.116;18.296;2023-05-07T14:47:38;4.63;;;4.00;;
51810;SDS011;52468;40.116;18.296;2023-05-07T14:50:06;4.03;;;3.65;;
51810;SDS011;52468;40.116;18.296;2023-05-07T14:52:34;4.05;;;3.67;;
51810;SDS011;52468;40.116;18.296;2023-05-07T14:55:02;3.88;;;3.47;;
51810;SDS011;52468;40.116;18.296;2023-05-07T14:57:30;3.05;;;2.75;;
51810;SDS011;52468;40.116;18.296;2023-05-07T15:00:03;4.40;;;3.33;;
51810;SDS011;52468;40.116;18.296;2023-05-07T15:05:01;3.47;;;3.00;;
51810;SDS011;52468;40.116;18.296;2023-05-07T15:07:30;4.03;;;3.55;;
51810;SDS011;52468;40.116;18.296;2023-05-07T15:10:00;4.43;;;3.30;;
51810;SDS011;52468;40.116;18.296;2023-05-07T15:12:28;3.55;;;2.90;;
51810;SDS011;52468;40.116;18.296;2023-05-07T15:14:59;3.80;;;3.50;;
51810;SDS011;52468;40.116;18.296;2023-05-07T15:17:27;4.80;;;2.97;;
51810;SDS011;52468;40.116;18.296;2023-05-07T15:19:55;4.40;;;3.85;;
51810;SDS011;52468;40.116;18.296;2023-05-07T15:22:23;5.25;;;3.90;;
51810;SDS011;52468;40.116;18.296;2023-05-07T15:24:51;3.75;;;3.25;;
51810;SDS011;52468;40.116;18.296;2023-05-07T15:27:18;5.05;;;3.80;;
51810;SDS011;52468;40.116;18.296;2023-05-07T15:29:46;5.88;;;4.07;;
51810;SDS011;52468;40.116;18.296;2023-05-07T15:32:14;3.80;;;2.85;;
51810;SDS011;52468;40.116;18.296;2023-05-07T15:34:43;4.00;;;3.60;;
51810;SDS011;52468;40.116;18.296;2023-05-07T15:37:12;4.22;;;3.83;;